sensor_id;sensor_type;location;lat;lon;timestamp;temperature;humidity
17948;DHT22;9099;47.958;11.366;2023-02-01T00:00:20;4.90;99.90
17948;DHT22;9099;47.958;11.366;2023-02-01T00:02:47;4.90;99.90
17948;DHT22;9099;47.958;11.366;2023-02-01T00:05:14;4.90;99.90
17948;DHT22;9099;47.958;11.366;2023-02-01T00:07:41;4.90;99.90
17948;DHT22;9099;47.958;11.366;2023-02-01T00:10:09;4.90;99.90
17948;DHT22;9099;47.958;11.366;2023-02-01T00:12:36;4.90;99.90
17948;DHT22;9099;47.958;11.366;2023-02-01T00:15:03;4.90;99.90
17948;DHT22;9099;47.958;11.366;2023-02-01T00:17:31;4.90;99.90
17948;DHT22;9099;47.958;11.366;2023-02-01T00:19:58;4.90;99.90
17948;DHT22;9099;47.958;11.366;2023-02-01T00:22:25;4.90;99.90
17948;DHT22;9099;47.958;11.366;2023-02-01T00:24:52;4.90;99.90
17948;DHT22;9099;47.958;11.366;2023-02-01T00:27:19;4.80;99.90
17948;DHT22;9099;47.958;11.366;2023-02-01T00:29:46;4.80;99.90
17948;DHT22;9099;47.958;11.366;2023-02-01T00:32:13;4.80;99.90
17948;DHT22;9099;47.958;11.366;2023-02-01T00:34:41;4.80;99.90
17948;DHT22;9099;47.958;11.366;2023-02-01T00:37:08;4.70;99.90
17948;DHT22;9099;47.958;11.366;2023-02-01T00:39:35;4.70;99.90
17948;DHT22;9099;47.958;11.366;2023-02-01T00:42:02;4.70;99.90
17948;DHT22;9099;47.958;11.366;2023-02-01T00:44:29;4.70;99.90
17948;DHT22;9099;47.958;11.366;2023-02-01T00:46:59;4.70;99.90
17948;DHT22;9099;47.958;11.366;2023-02-01T00:49:26;4.70;99.90
17948;DHT22;9099;47.958;11.366;2023-02-01T00:51:54;4.60;99.90
17948;DHT22;9099;47.958;11.366;2023-02-01T00:54:21;4.60;99.90
17948;DHT22;9099;47.958;11.366;2023-02-01T00:56:49;4.60;99.90
17948;DHT22;9099;47.958;11.366;2023-02-01T00:59:15;4.60;99.90
17948;DHT22;9099;47.958;11.366;2023-02-01T01:01:42;4.60;99.90
17948;DHT22;9099;47.958;11.366;2023-02-01T01:04:09;4.50;99.90
17948;DHT22;9099;47.958;11.366;2023-02-01T01:06:36;4.50;99.90
17948;DHT22;9099;47.958;11.366;2023-02-01T01:09:06;4.50;99.90
17948;DHT22;9099;47.958;11.366;2023-02-01T01:11:34;4.60;99.90
17948;DHT22;9099;47.958;11.366;2023-02-01T01:14:02;4.60;99.90
17948;DHT22;9099;47.958;11.366;2023-02-01T01:16:30;4.60;99.90
17948;DHT22;9099;47.958;11.366;2023-02-01T01:18:58;4.60;99.90
17948;DHT22;9099;47.958;11.366;2023-02-01T01:21:25;4.60;99.90
17948;DHT22;9099;47.958;11.366;2023-02-01T01:23:53;4.70;99.90
17948;DHT22;9099;47.958;11.366;2023-02-01T01:26:23;4.70;99.90
17948;DHT22;9099;47.958;11.366;2023-02-01T01:28:50;4.70;99.90
17948;DHT22;9099;47.958;11.366;2023-02-01T01:31:18;4.60;99.90
17948;DHT22;9099;47.958;11.366;2023-02-01T01:33:48;4.60;99.90
17948;DHT22;9099;47.958;11.366;2023-02-01T01:36:15;4.50;99.90
17948;DHT22;9099;47.958;11.366;2023-02-01T01:38:43;4.50;99.90
17948;DHT22;9099;47.958;11.366;2023-02-01T01:41:14;4.50;99.90
17948;DHT22;9099;47.958;11.366;2023-02-01T01:43:49;4.50;99.90
17948;DHT22;9099;47.958;11.366;2023-02-01T01:46:18;4.50;99.90
17948;DHT22;9099;47.958;11.366;2023-02-01T01:48:46;4.50;99.90
17948;DHT22;9099;47.958;11.366;2023-02-01T01:51:16;4.40;99.90
17948;DHT22;9099;47.958;11.366;2023-02-01T01:53:48;4.40;99.90
17948;DHT22;9099;47.958;11.366;2023-02-01T01:56:16;4.30;99.90
17948;DHT22;9099;47.958;11.366;2023-02-01T01:58:43;4.30;99.90
17948;DHT22;9099;47.958;11.366;2023-02-01T02:01:12;4.30;99.90
17948;DHT22;9099;47.958;11.366;2023-02-01T02:03:40;4.30;99.90
17948;DHT22;9099;47.958;11.366;2023-02-01T02:06:12;4.30;99.90
17948;DHT22;9099;47.958;11.366;2023-02-01T02:08:41;4.20;99.90
17948;DHT22;9099;47.958;11.366;2023-02-01T02:11:10;4.20;99.90
17948;DHT22;9099;47.958;11.366;2023-02-01T02:13:40;4.20;99.90
17948;DHT22;9099;47.958;11.366;2023-02-01T02:16:35;4.20;99.90
17948;DHT22;9099;47.958;11.366;2023-02-01T02:19:24;4.10;99.90
17948;DHT22;9099;47.958;11.366;2023-02-01T02:22:16;4.10;99.90
17948;DHT22;9099;47.958;11.366;2023-02-01T02:25:14;4.00;99.90
17948;DHT22;9099;47.958;11.366;2023-02-01T02:27:47;4.00;99.90
17948;DHT22;9099;47.958;11.366;2023-02-01T02:30:49;3.90;99.90
17948;DHT22;9099;47.958;11.366;2023-02-01T02:33:52;3.90;99.90
17948;DHT22;9099;47.958;11.366;2023-02-01T02:36:28;3.90;99.90
17948;DHT22;9099;47.958;11.366;2023-02-01T02:39:05;3.90;99.90
17948;DHT22;9099;47.958;11.366;2023-02-01T02:41:39;3.90;99.90
17948;DHT22;9099;47.958;11.366;2023-02-01T02:44:34;3.90;99.90
17948;DHT22;9099;47.958;11.366;2023-02-01T02:47:24;3.90;99.90
17948;DHT22;9099;47.958;11.366;2023-02-01T02:50:05;4.00;99.90
17948;DHT22;9099;47.958;11.366;2023-02-01T02:52:57;4.00;99.90
17948;DHT22;9099;47.958;11.366;2023-02-01T02:55:44;4.00;99.90
17948;DHT22;9099;47.958;11.366;2023-02-01T02:58:13;4.00;99.90
17948;DHT22;9099;47.958;11.366;2023-02-01T03:00:57;4.00;99.90
17948;DHT22;9099;47.958;11.366;2023-02-01T03:03:42;4.10;99.90
17948;DHT22;9099;47.958;11.366;2023-02-01T03:06:37;4.10;99.90
17948;DHT22;9099;47.958;11.366;2023-02-01T03:09:10;4.10;99.90
17948;DHT22;9099;47.958;11.366;2023-02-01T03:11:40;4.10;99.90
17948;DHT22;9099;47.958;11.366;2023-02-01T03:14:28;4.10;99.90
17948;DHT22;9099;47.958;11.366;2023-02-01T03:16:58;4.10;99.90
17948;DHT22;9099;47.958;11.366;2023-02-01T03:19:31;4.10;99.90
17948;DHT22;9099;47.958;11.366;2023-02-01T03:22:04;4.10;99.90
17948;DHT22;9099;47.958;11.366;2023-02-01T03:24:34;4.10;99.90
17948;DHT22;9099;47.958;11.366;2023-02-01T03:27:07;4.00;99.90
17948;DHT22;9099;47.958;11.366;2023-02-01T03:29:39;4.00;99.90
17948;DHT22;9099;47.958;11.366;2023-02-01T03:32:06;4.10;99.90
17948;DHT22;9099;47.958;11.366;2023-02-01T03:34:35;4.10;99.90
17948;DHT22;9099;47.958;11.366;2023-02-01T03:37:06;4.10;99.90
17948;DHT22;9099;47.958;11.366;2023-02-01T03:39:39;4.10;99.90
17948;DHT22;9099;47.958;11.366;2023-02-01T03:42:12;4.10;99.90
17948;DHT22;9099;47.958;11.366;2023-02-01T03:44:45;4.20;99.90
17948;DHT22;9099;47.958;11.366;2023-02-01T03:47:16;4.20;99.90
17948;DHT22;9099;47.958;11.366;2023-02-01T03:49:47;4.10;99.90
17948;DHT22;9099;47.958;11.366;2023-02-01T03:52:20;4.10;99.90
17948;DHT22;9099;47.958;11.366;2023-02-01T03:54:49;4.00;99.90
17948;DHT22;9099;47.958;11.366;2023-02-01T03:57:22;4.10;99.90
17948;DHT22;9099;47.958;11.366;2023-02-01T03:59:50;4.10;99.90
17948;DHT22;9099;47.958;11.366;2023-02-01T04:02:17;4.10;99.90
17948;DHT22;9099;47.958;11.366;2023-02-01T04:04:44;4.10;99.90
17948;DHT22;9099;47.958;11.366;2023-02-01T04:07:11;4.10;99.90
17948;DHT22;9099;47.958;11.366;2023-02-01T04:09:39;4.10;99.90
17948;DHT22;9099;47.958;11.366;2023-02-01T04:12:06;4.10;99.90
17948;DHT22;9099;47.958;11.366;2023-02-01T04:14:33;4.10;99.90
17948;DHT22;9099;47.958;11.366;2023-02-01T04:17:00;4.10;99.90
17948;DHT22;9099;47.958;11.366;2023-02-01T04:19:26;4.10;99.90
17948;DHT22;9099;47.958;11.366;2023-02-01T04:21:53;4.10;99.90
17948;DHT22;9099;47.958;11.366;2023-02-01T04:24:20;4.10;99.90
17948;DHT22;9099;47.958;11.366;2023-02-01T04:26:48;4.10;99.90
17948;DHT22;9099;47.958;11.366;2023-02-01T04:29:15;4.10;99.90
17948;DHT22;9099;47.958;11.366;2023-02-01T04:31:42;4.10;99.90
17948;DHT22;9099;47.958;11.366;2023-02-01T04:34:09;4.10;99.90
17948;DHT22;9099;47.958;11.366;2023-02-01T04:36:36;4.10;99.90
17948;DHT22;9099;47.958;11.366;2023-02-01T04:39:02;4.10;99.90
17948;DHT22;9099;47.958;11.366;2023-02-01T04:41:29;4.00;99.90
17948;DHT22;9099;47.958;11.366;2023-02-01T04:43:57;4.10;99.90
17948;DHT22;9099;47.958;11.366;2023-02-01T04:46:24;4.00;99.90
17948;DHT22;9099;47.958;11.366;2023-02-01T04:48:51;4.00;99.90
17948;DHT22;9099;47.958;11.366;2023-02-01T04:51:18;4.10;99.90
17948;DHT22;9099;47.958;11.366;2023-02-01T04:53:45;4.00;99.90
17948;DHT22;9099;47.958;11.366;2023-02-01T04:56:11;4.10;99.90
17948;DHT22;9099;47.958;11.366;2023-02-01T04:58:38;4.10;99.90
17948;DHT22;9099;47.958;11.366;2023-02-01T05:01:07;4.00;99.90
17948;DHT22;9099;47.958;11.366;2023-02-01T05:03:34;4.10;99.90
17948;DHT22;9099;47.958;11.366;2023-02-01T05:06:01;4.10;99.90
17948;DHT22;9099;47.958;11.366;2023-02-01T05:08:29;4.00;99.90
17948;DHT22;9099;47.958;11.366;2023-02-01T05:10:56;4.00;99.90
17948;DHT22;9099;47.958;11.366;2023-02-01T05:13:24;4.00;99.90
17948;DHT22;9099;47.958;11.366;2023-02-01T05:16:09;3.90;99.90
17948;DHT22;9099;47.958;11.366;2023-02-01T05:18:36;3.90;99.90
17948;DHT22;9099;47.958;11.366;2023-02-01T05:21:03;3.90;99.90
17948;DHT22;9099;47.958;11.366;2023-02-01T05:23:30;4.00;99.90
17948;DHT22;9099;47.958;11.366;2023-02-01T05:26:01;4.00;99.90
17948;DHT22;9099;47.958;11.366;2023-02-01T05:28:28;4.00;99.90
17948;DHT22;9099;47.958;11.366;2023-02-01T05:30:55;3.90;99.90
17948;DHT22;9099;47.958;11.366;2023-02-01T05:33:23;3.90;99.90
17948;DHT22;9099;47.958;11.366;2023-02-01T05:35:50;3.90;99.90
17948;DHT22;9099;47.958;11.366;2023-02-01T05:38:17;4.00;99.90
17948;DHT22;9099;47.958;11.366;2023-02-01T05:40:43;3.90;99.90
17948;DHT22;9099;47.958;11.366;2023-02-01T05:43:15;3.90;99.90
17948;DHT22;9099;47.958;11.366;2023-02-01T05:45:42;3.90;99.90
17948;DHT22;9099;47.958;11.366;2023-02-01T05:48:09;3.90;99.90
17948;DHT22;9099;47.958;11.366;2023-02-01T05:50:37;4.00;99.90
17948;DHT22;9099;47.958;11.366;2023-02-01T05:53:04;4.00;99.90
17948;DHT22;9099;47.958;11.366;2023-02-01T05:55:31;4.00;99.90
17948;DHT22;9099;47.958;11.366;2023-02-01T05:57:58;4.00;99.90
17948;DHT22;9099;47.958;11.366;2023-02-01T06:00:24;4.00;99.90
17948;DHT22;9099;47.958;11.366;2023-02-01T06:02:51;4.00;99.90
17948;DHT22;9099;47.958;11.366;2023-02-01T06:05:18;4.00;99.90
17948;DHT22;9099;47.958;11.366;2023-02-01T06:07:47;4.10;99.90
17948;DHT22;9099;47.958;11.366;2023-02-01T06:10:15;4.10;99.90
17948;DHT22;9099;47.958;11.366;2023-02-01T06:12:42;4.00;99.90
17948;DHT22;9099;47.958;11.366;2023-02-01T06:15:10;4.10;99.90
17948;DHT22;9099;47.958;11.366;2023-02-01T06:17:37;4.10;99.90
17948;DHT22;9099;47.958;11.366;2023-02-01T06:20:05;4.10;99.90
17948;DHT22;9099;47.958;11.366;2023-02-01T06:22:32;4.10;99.90
17948;DHT22;9099;47.958;11.366;2023-02-01T06:25:02;4.10;99.90
17948;DHT22;9099;47.958;11.366;2023-02-01T06:27:29;4.10;99.90
17948;DHT22;9099;47.958;11.366;2023-02-01T06:29:56;4.10;99.90
17948;DHT22;9099;47.958;11.366;2023-02-01T06:32:23;4.20;99.90
17948;DHT22;9099;47.958;11.366;2023-02-01T06:34:50;4.10;99.90
17948;DHT22;9099;47.958;11.366;2023-02-01T06:37:18;4.20;99.90
17948;DHT22;9099;47.958;11.366;2023-02-01T06:39:45;4.20;99.90
17948;DHT22;9099;47.958;11.366;2023-02-01T06:42:13;4.10;99.90
17948;DHT22;9099;47.958;11.366;2023-02-01T06:44:40;4.20;99.90
17948;DHT22;9099;47.958;11.366;2023-02-01T06:47:07;4.20;99.90
17948;DHT22;9099;47.958;11.366;2023-02-01T06:49:34;4.20;99.90
17948;DHT22;9099;47.958;11.366;2023-02-01T06:52:01;4.20;99.90
17948;DHT22;9099;47.958;11.366;2023-02-01T06:54:28;4.20;99.90
17948;DHT22;9099;47.958;11.366;2023-02-01T06:56:57;4.20;99.90
17948;DHT22;9099;47.958;11.366;2023-02-01T06:59:25;4.10;99.90
17948;DHT22;9099;47.958;11.366;2023-02-01T07:01:52;4.10;99.90
17948;DHT22;9099;47.958;11.366;2023-02-01T07:04:19;4.10;99.90
17948;DHT22;9099;47.958;11.366;2023-02-01T07:06:46;4.10;99.90
17948;DHT22;9099;47.958;11.366;2023-02-01T07:09:13;4.00;99.90
17948;DHT22;9099;47.958;11.366;2023-02-01T07:11:39;4.10;99.90
17948;DHT22;9099;47.958;11.366;2023-02-01T07:14:08;4.10;99.90
17948;DHT22;9099;47.958;11.366;2023-02-01T07:16:37;4.10;99.90
17948;DHT22;9099;47.958;11.366;2023-02-01T07:19:04;4.00;99.90
17948;DHT22;9099;47.958;11.366;2023-02-01T07:21:31;4.00;99.90
17948;DHT22;9099;47.958;11.366;2023-02-01T07:23:58;4.00;99.90
17948;DHT22;9099;47.958;11.366;2023-02-01T07:26:25;4.00;99.90
17948;DHT22;9099;47.958;11.366;2023-02-01T07:28:51;4.00;99.90
17948;DHT22;9099;47.958;11.366;2023-02-01T07:31:19;4.00;99.90
17948;DHT22;9099;47.958;11.366;2023-02-01T07:33:49;4.00;99.90
17948;DHT22;9099;47.958;11.366;2023-02-01T07:36:17;4.00;99.90
17948;DHT22;9099;47.958;11.366;2023-02-01T07:38:45;4.10;99.90
17948;DHT22;9099;47.958;11.366;2023-02-01T07:41:15;4.10;99.90
17948;DHT22;9099;47.958;11.366;2023-02-01T07:43:42;4.10;99.90
17948;DHT22;9099;47.958;11.366;2023-02-01T07:46:10;4.20;99.90
17948;DHT22;9099;47.958;11.366;2023-02-01T07:48:37;4.20;99.90
17948;DHT22;9099;47.958;11.366;2023-02-01T07:51:08;4.20;99.90
17948;DHT22;9099;47.958;11.366;2023-02-01T07:53:36;4.20;99.90
17948;DHT22;9099;47.958;11.366;2023-02-01T07:56:04;4.30;99.90
17948;DHT22;9099;47.958;11.366;2023-02-01T07:58:31;4.20;99.90
17948;DHT22;9099;47.958;11.366;2023-02-01T08:01:02;4.20;99.90
17948;DHT22;9099;47.958;11.366;2023-02-01T08:03:54;4.30;99.90
17948;DHT22;9099;47.958;11.366;2023-02-01T08:06:25;4.30;99.90
17948;DHT22;9099;47.958;11.366;2023-02-01T08:08:54;4.30;99.90
17948;DHT22;9099;47.958;11.366;2023-02-01T08:11:25;4.30;99.90
17948;DHT22;9099;47.958;11.366;2023-02-01T08:13:54;4.30;99.90
17948;DHT22;9099;47.958;11.366;2023-02-01T08:16:22;4.30;99.90
17948;DHT22;9099;47.958;11.366;2023-02-01T08:18:49;4.30;99.90
17948;DHT22;9099;47.958;11.366;2023-02-01T08:21:18;4.40;99.90
17948;DHT22;9099;47.958;11.366;2023-02-01T08:23:48;4.30;99.90
17948;DHT22;9099;47.958;11.366;2023-02-01T08:26:18;4.40;99.90
17948;DHT22;9099;47.958;11.366;2023-02-01T08:28:48;4.30;99.90
17948;DHT22;9099;47.958;11.366;2023-02-01T08:31:18;4.30;99.90
17948;DHT22;9099;47.958;11.366;2023-02-01T08:33:49;4.40;99.90
17948;DHT22;9099;47.958;11.366;2023-02-01T08:36:16;4.40;99.90
17948;DHT22;9099;47.958;11.366;2023-02-01T08:38:47;4.40;99.90
17948;DHT22;9099;47.958;11.366;2023-02-01T08:41:16;4.50;99.90
17948;DHT22;9099;47.958;11.366;2023-02-01T08:43:45;4.50;99.90
17948;DHT22;9099;47.958;11.366;2023-02-01T08:46:13;4.50;99.90
17948;DHT22;9099;47.958;11.366;2023-02-01T08:48:40;4.50;99.90
17948;DHT22;9099;47.958;11.366;2023-02-01T08:51:09;4.50;99.90
17948;DHT22;9099;47.958;11.366;2023-02-01T08:53:39;4.60;99.90
17948;DHT22;9099;47.958;11.366;2023-02-01T08:56:08;4.60;99.90
17948;DHT22;9099;47.958;11.366;2023-02-01T08:58:36;4.60;99.90
17948;DHT22;9099;47.958;11.366;2023-02-01T09:01:04;4.60;99.90
17948;DHT22;9099;47.958;11.366;2023-02-01T09:03:31;4.70;99.90
17948;DHT22;9099;47.958;11.366;2023-02-01T09:06:00;4.70;99.90
17948;DHT22;9099;47.958;11.366;2023-02-01T09:08:27;4.70;99.90
17948;DHT22;9099;47.958;11.366;2023-02-01T09:10:59;4.80;99.90
17948;DHT22;9099;47.958;11.366;2023-02-01T09:13:28;4.80;99.90
17948;DHT22;9099;47.958;11.366;2023-02-01T09:15:55;4.90;99.90
17948;DHT22;9099;47.958;11.366;2023-02-01T09:18:22;4.90;99.90
17948;DHT22;9099;47.958;11.366;2023-02-01T09:20:50;4.90;99.90
17948;DHT22;9099;47.958;11.366;2023-02-01T09:23:17;4.90;99.90
17948;DHT22;9099;47.958;11.366;2023-02-01T09:25:45;5.00;99.90
17948;DHT22;9099;47.958;11.366;2023-02-01T09:28:14;5.10;99.90
17948;DHT22;9099;47.958;11.366;2023-02-01T09:30:42;5.10;99.90
17948;DHT22;9099;47.958;11.366;2023-02-01T09:33:10;5.10;99.90
17948;DHT22;9099;47.958;11.366;2023-02-01T09:35:37;5.20;99.90
17948;DHT22;9099;47.958;11.366;2023-02-01T09:38:04;5.20;99.90
17948;DHT22;9099;47.958;11.366;2023-02-01T09:40:34;5.30;99.90
17948;DHT22;9099;47.958;11.366;2023-02-01T09:43:12;5.30;99.90
17948;DHT22;9099;47.958;11.366;2023-02-01T09:45:51;5.40;99.90
17948;DHT22;9099;47.958;11.366;2023-02-01T09:48:27;5.30;99.90
17948;DHT22;9099;47.958;11.366;2023-02-01T09:50:57;5.30;99.90
17948;DHT22;9099;47.958;11.366;2023-02-01T09:53:28;5.40;99.90
17948;DHT22;9099;47.958;11.366;2023-02-01T09:56:02;5.40;99.90
17948;DHT22;9099;47.958;11.366;2023-02-01T09:58:33;5.40;99.90
17948;DHT22;9099;47.958;11.366;2023-02-01T10:01:08;5.50;99.90
17948;DHT22;9099;47.958;11.366;2023-02-01T10:03:38;5.50;99.90
17948;DHT22;9099;47.958;11.366;2023-02-01T10:09:19;5.60;99.90
17948;DHT22;9099;47.958;11.366;2023-02-01T10:12:13;5.60;99.90
17948;DHT22;9099;47.958;11.366;2023-02-01T10:14:59;5.50;99.90
17948;DHT22;9099;47.958;11.366;2023-02-01T10:17:43;5.50;99.90
17948;DHT22;9099;47.958;11.366;2023-02-01T10:20:18;5.40;99.90
17948;DHT22;9099;47.958;11.366;2023-02-01T10:22:58;5.40;99.90
17948;DHT22;9099;47.958;11.366;2023-02-01T10:25:30;5.50;99.90
17948;DHT22;9099;47.958;11.366;2023-02-01T10:28:00;5.50;99.90
17948;DHT22;9099;47.958;11.366;2023-02-01T10:30:32;5.50;99.90
17948;DHT22;9099;47.958;11.366;2023-02-01T10:33:15;5.50;99.90
17948;DHT22;9099;47.958;11.366;2023-02-01T10:35:44;5.50;99.90
17948;DHT22;9099;47.958;11.366;2023-02-01T10:38:17;5.50;99.90
17948;DHT22;9099;47.958;11.366;2023-02-01T10:40:45;5.60;99.90
17948;DHT22;9099;47.958;11.366;2023-02-01T10:43:12;5.60;99.90
17948;DHT22;9099;47.958;11.366;2023-02-01T10:45:40;5.60;99.90
17948;DHT22;9099;47.958;11.366;2023-02-01T10:48:09;5.70;99.90
17948;DHT22;9099;47.958;11.366;2023-02-01T10:50:40;5.70;99.90
17948;DHT22;9099;47.958;11.366;2023-02-01T10:53:15;5.70;99.90
17948;DHT22;9099;47.958;11.366;2023-02-01T10:55:48;5.80;99.90
17948;DHT22;9099;47.958;11.366;2023-02-01T10:58:17;5.80;99.90
17948;DHT22;9099;47.958;11.366;2023-02-01T11:00:47;5.70;99.90
17948;DHT22;9099;47.958;11.366;2023-02-01T11:03:43;5.70;99.90
17948;DHT22;9099;47.958;11.366;2023-02-01T11:06:17;5.70;99.90
17948;DHT22;9099;47.958;11.366;2023-02-01T11:08:49;5.70;99.90
17948;DHT22;9099;47.958;11.366;2023-02-01T11:11:17;5.60;99.90
17948;DHT22;9099;47.958;11.366;2023-02-01T11:13:52;5.70;99.90
17948;DHT22;9099;47.958;11.366;2023-02-01T11:16:19;5.80;99.90
17948;DHT22;9099;47.958;11.366;2023-02-01T11:18:53;5.90;99.90
17948;DHT22;9099;47.958;11.366;2023-02-01T11:21:20;5.90;99.90
17948;DHT22;9099;47.958;11.366;2023-02-01T11:23:48;5.80;99.90
17948;DHT22;9099;47.958;11.366;2023-02-01T11:26:21;5.80;99.90
17948;DHT22;9099;47.958;11.366;2023-02-01T11:28:53;5.80;99.90
17948;DHT22;9099;47.958;11.366;2023-02-01T11:31:24;5.80;99.90
17948;DHT22;9099;47.958;11.366;2023-02-01T11:33:57;5.80;99.90
17948;DHT22;9099;47.958;11.366;2023-02-01T11:36:27;5.80;99.90
17948;DHT22;9099;47.958;11.366;2023-02-01T11:39:09;5.80;99.90
17948;DHT22;9099;47.958;11.366;2023-02-01T11:41:41;5.80;99.90
17948;DHT22;9099;47.958;11.366;2023-02-01T11:44:21;5.80;99.90
17948;DHT22;9099;47.958;11.366;2023-02-01T11:46:48;5.80;99.90
17948;DHT22;9099;47.958;11.366;2023-02-01T11:49:22;5.80;99.90
17948;DHT22;9099;47.958;11.366;2023-02-01T11:52:08;5.70;99.90
17948;DHT22;9099;47.958;11.366;2023-02-01T11:54:52;5.60;99.90
17948;DHT22;9099;47.958;11.366;2023-02-01T11:57:37;5.50;99.90
17948;DHT22;9099;47.958;11.366;2023-02-01T12:00:35;5.40;99.90
17948;DHT22;9099;47.958;11.366;2023-02-01T12:03:31;5.40;99.90
17948;DHT22;9099;47.958;11.366;2023-02-01T12:06:10;5.40;99.90
17948;DHT22;9099;47.958;11.366;2023-02-01T12:09:03;5.40;99.90
17948;DHT22;9099;47.958;11.366;2023-02-01T12:11:45;5.50;99.90
17948;DHT22;9099;47.958;11.366;2023-02-01T12:14:27;5.50;99.90
17948;DHT22;9099;47.958;11.366;2023-02-01T12:20:02;5.60;99.90
17948;DHT22;9099;47.958;11.366;2023-02-01T12:22:46;5.70;99.90
17948;DHT22;9099;47.958;11.366;2023-02-01T12:25:39;5.70;99.90
17948;DHT22;9099;47.958;11.366;2023-02-01T12:28:33;5.70;99.90
17948;DHT22;9099;47.958;11.366;2023-02-01T12:31:15;5.60;99.90
17948;DHT22;9099;47.958;11.366;2023-02-01T12:34:01;5.60;99.90
17948;DHT22;9099;47.958;11.366;2023-02-01T12:36:40;5.60;99.90
17948;DHT22;9099;47.958;11.366;2023-02-01T12:39:21;5.50;99.90
17948;DHT22;9099;47.958;11.366;2023-02-01T12:42:01;5.50;99.90
17948;DHT22;9099;47.958;11.366;2023-02-01T12:44:39;5.40;99.90
17948;DHT22;9099;47.958;11.366;2023-02-01T12:47:14;5.40;99.90
17948;DHT22;9099;47.958;11.366;2023-02-01T12:49:53;5.40;99.90
17948;DHT22;9099;47.958;11.366;2023-02-01T12:52:27;5.40;99.90
17948;DHT22;9099;47.958;11.366;2023-02-01T12:55:06;5.40;99.90
17948;DHT22;9099;47.958;11.366;2023-02-01T12:57:37;5.50;99.90
17948;DHT22;9099;47.958;11.366;2023-02-01T13:00:15;5.50;99.90
17948;DHT22;9099;47.958;11.366;2023-02-01T13:02:52;5.50;99.90
17948;DHT22;9099;47.958;11.366;2023-02-01T13:05:22;5.50;99.90
17948;DHT22;9099;47.958;11.366;2023-02-01T13:07:53;5.50;99.90
17948;DHT22;9099;47.958;11.366;2023-02-01T13:10:32;5.60;99.90
17948;DHT22;9099;47.958;11.366;2023-02-01T13:13:10;5.60;99.90
17948;DHT22;9099;47.958;11.366;2023-02-01T13:15:40;5.70;99.90
17948;DHT22;9099;47.958;11.366;2023-02-01T13:18:13;5.60;99.90
17948;DHT22;9099;47.958;11.366;2023-02-01T13:20:47;5.60;99.90
17948;DHT22;9099;47.958;11.366;2023-02-01T13:23:22;5.70;99.90
17948;DHT22;9099;47.958;11.366;2023-02-01T13:25:53;5.70;99.90
17948;DHT22;9099;47.958;11.366;2023-02-01T13:28:28;5.70;99.90
17948;DHT22;9099;47.958;11.366;2023-02-01T13:31:06;5.70;99.90
17948;DHT22;9099;47.958;11.366;2023-02-01T13:33:52;5.60;99.90
17948;DHT22;9099;47.958;11.366;2023-02-01T13:36:48;5.60;99.90
17948;DHT22;9099;47.958;11.366;2023-02-01T13:39:42;5.70;99.90
17948;DHT22;9099;47.958;11.366;2023-02-01T13:42:18;5.70;99.90
17948;DHT22;9099;47.958;11.366;2023-02-01T13:44:51;5.70;99.90
17948;DHT22;9099;47.958;11.366;2023-02-01T13:47:24;5.70;99.90
17948;DHT22;9099;47.958;11.366;2023-02-01T13:49:54;5.60;99.90
17948;DHT22;9099;47.958;11.366;2023-02-01T13:52:29;5.60;99.90
17948;DHT22;9099;47.958;11.366;2023-02-01T13:55:31;5.60;99.90
17948;DHT22;9099;47.958;11.366;2023-02-01T13:58:10;5.60;99.90
17948;DHT22;9099;47.958;11.366;2023-02-01T14:00:40;5.60;99.90
17948;DHT22;9099;47.958;11.366;2023-02-01T14:03:12;5.60;99.90
17948;DHT22;9099;47.958;11.366;2023-02-01T14:06:00;5.50;99.90
17948;DHT22;9099;47.958;11.366;2023-02-01T14:08:46;5.60;99.90
17948;DHT22;9099;47.958;11.366;2023-02-01T14:11:54;5.60;99.90
17948;DHT22;9099;47.958;11.366;2023-02-01T14:14:43;5.60;99.90
17948;DHT22;9099;47.958;11.366;2023-02-01T14:17:38;5.50;99.90
17948;DHT22;9099;47.958;11.366;2023-02-01T14:23:20;5.50;99.90
17948;DHT22;9099;47.958;11.366;2023-02-01T14:26:06;5.60;99.90
17948;DHT22;9099;47.958;11.366;2023-02-01T14:28:36;5.60;99.90
17948;DHT22;9099;47.958;11.366;2023-02-01T14:31:30;5.50;99.90
17948;DHT22;9099;47.958;11.366;2023-02-01T14:34:00;5.50;99.90
17948;DHT22;9099;47.958;11.366;2023-02-01T14:36:40;5.50;99.90
17948;DHT22;9099;47.958;11.366;2023-02-01T14:39:19;5.50;99.90
17948;DHT22;9099;47.958;11.366;2023-02-01T14:41:47;5.50;99.90
17948;DHT22;9099;47.958;11.366;2023-02-01T14:44:34;5.40;99.90
17948;DHT22;9099;47.958;11.366;2023-02-01T14:47:11;5.40;99.90
17948;DHT22;9099;47.958;11.366;2023-02-01T14:49:56;5.40;99.90
17948;DHT22;9099;47.958;11.366;2023-02-01T14:52:30;5.40;99.90
17948;DHT22;9099;47.958;11.366;2023-02-01T14:55:03;5.40;99.90
17948;DHT22;9099;47.958;11.366;2023-02-01T14:57:34;5.40;99.90
17948;DHT22;9099;47.958;11.366;2023-02-01T15:00:16;5.40;99.90
17948;DHT22;9099;47.958;11.366;2023-02-01T15:02:48;5.40;99.90
17948;DHT22;9099;47.958;11.366;2023-02-01T15:05:36;5.40;99.90
17948;DHT22;9099;47.958;11.366;2023-02-01T15:08:10;5.40;99.90
17948;DHT22;9099;47.958;11.366;2023-02-01T15:10:44;5.40;99.90
17948;DHT22;9099;47.958;11.366;2023-02-01T15:13:23;5.30;99.90
17948;DHT22;9099;47.958;11.366;2023-02-01T15:16:05;5.30;99.90
17948;DHT22;9099;47.958;11.366;2023-02-01T15:18:34;5.30;99.90
17948;DHT22;9099;47.958;11.366;2023-02-01T15:21:02;5.30;99.90
17948;DHT22;9099;47.958;11.366;2023-02-01T15:23:29;5.30;99.90
17948;DHT22;9099;47.958;11.366;2023-02-01T15:25:56;5.30;99.90
17948;DHT22;9099;47.958;11.366;2023-02-01T15:28:25;5.30;99.90
17948;DHT22;9099;47.958;11.366;2023-02-01T15:30:55;5.30;99.90
17948;DHT22;9099;47.958;11.366;2023-02-01T15:33:22;5.30;99.90
17948;DHT22;9099;47.958;11.366;2023-02-01T15:35:52;5.30;99.90
17948;DHT22;9099;47.958;11.366;2023-02-01T15:38:33;5.30;99.90
17948;DHT22;9099;47.958;11.366;2023-02-01T15:41:07;5.20;99.90
17948;DHT22;9099;47.958;11.366;2023-02-01T15:43:37;5.20;99.90
17948;DHT22;9099;47.958;11.366;2023-02-01T15:46:10;5.20;99.90
17948;DHT22;9099;47.958;11.366;2023-02-01T15:48:41;5.20;99.90
17948;DHT22;9099;47.958;11.366;2023-02-01T15:51:15;5.20;99.90
17948;DHT22;9099;47.958;11.366;2023-02-01T15:53:45;5.20;99.90
17948;DHT22;9099;47.958;11.366;2023-02-01T15:56:13;5.20;99.90
17948;DHT22;9099;47.958;11.366;2023-02-01T15:58:42;5.20;99.90
17948;DHT22;9099;47.958;11.366;2023-02-01T16:01:13;5.10;99.90
17948;DHT22;9099;47.958;11.366;2023-02-01T16:03:41;5.10;99.90
17948;DHT22;9099;47.958;11.366;2023-02-01T16:06:11;5.10;99.90
17948;DHT22;9099;47.958;11.366;2023-02-01T16:08:49;5.00;99.90
17948;DHT22;9099;47.958;11.366;2023-02-01T16:11:26;5.00;99.90
17948;DHT22;9099;47.958;11.366;2023-02-01T16:13:55;5.00;99.90
17948;DHT22;9099;47.958;11.366;2023-02-01T16:16:24;4.90;99.90
17948;DHT22;9099;47.958;11.366;2023-02-01T16:18:51;4.90;99.90
17948;DHT22;9099;47.958;11.366;2023-02-01T16:21:17;4.90;99.90
17948;DHT22;9099;47.958;11.366;2023-02-01T16:23:49;4.80;99.90
17948;DHT22;9099;47.958;11.366;2023-02-01T16:26:17;4.80;99.90